createdAt,value
2022-11-24T00:00:18.732Z,84.90
2022-11-24T00:02:45.133Z,85.57
2022-11-24T00:05:11.757Z,84.96
2022-11-24T00:07:38.182Z,85.55
2022-11-24T00:10:05.091Z,85.13
2022-11-24T00:12:31.391Z,85.71
2022-11-24T00:14:57.721Z,85.57
2022-11-24T00:17:24.431Z,86.08
2022-11-24T00:19:50.772Z,86.59
2022-11-24T00:22:17.251Z,86.37
2022-11-24T00:24:43.573Z,86.54
2022-11-24T00:27:09.885Z,86.12
2022-11-24T00:29:36.183Z,86.32
2022-11-24T00:32:02.641Z,86.71
2022-11-24T00:34:28.930Z,86.86
2022-11-24T00:36:55.314Z,87.38
2022-11-24T00:39:21.678Z,87.00
2022-11-24T00:41:48.292Z,85.30
2022-11-24T00:44:14.726Z,85.88
2022-11-24T00:46:41.226Z,85.86
2022-11-24T00:49:07.861Z,84.89
2022-11-24T00:51:34.242Z,85.00
2022-11-24T00:54:01.293Z,84.71
2022-11-24T00:56:29.531Z,83.65
2022-11-24T00:58:56.193Z,84.93
2022-11-24T01:01:25.102Z,85.48
2022-11-24T01:03:51.967Z,85.93
2022-11-24T01:06:24.024Z,85.46
2022-11-24T01:08:50.638Z,85.91
2022-11-24T01:11:23.285Z,86.53
2022-11-24T01:13:53.261Z,86.65
2022-11-24T01:16:31.316Z,86.68
2022-11-24T01:18:57.795Z,87.21
2022-11-24T01:21:24.550Z,87.54
2022-11-24T01:23:50.991Z,87.67
2022-11-24T01:26:20.415Z,86.58
2022-11-24T01:28:47.926Z,86.00
2022-11-24T01:31:15.410Z,86.54
2022-11-24T01:33:42.299Z,87.09
2022-11-24T01:36:08.665Z,86.98
2022-11-24T01:38:35.119Z,85.80
2022-11-24T01:41:10.118Z,86.87
2022-11-24T01:43:36.811Z,87.08
2022-11-24T01:46:32.420Z,86.49
2022-11-24T01:49:16.352Z,87.05
2022-11-24T01:51:53.522Z,87.22
2022-11-24T01:54:29.374Z,86.71
2022-11-24T01:57:02.252Z,85.67
2022-11-24T01:59:28.841Z,86.07
2022-11-24T02:01:57.050Z,85.80
2022-11-24T02:04:27.570Z,86.47
2022-11-24T02:06:56.157Z,86.86
2022-11-24T02:09:40.203Z,86.71
2022-11-24T02:12:07.043Z,86.26
2022-11-24T02:14:37.366Z,86.26
2022-11-24T02:17:04.004Z,86.85
2022-11-24T02:19:58.586Z,87.13
2022-11-24T02:22:36.146Z,86.82
2022-11-24T02:25:29.978Z,87.22
2022-11-24T02:27:59.042Z,87.53
2022-11-24T02:30:25.435Z,87.65
2022-11-24T02:32:52.872Z,87.35
2022-11-24T02:35:20.060Z,87.63
2022-11-24T02:37:46.703Z,87.79
2022-11-24T02:40:16.145Z,87.66
2022-11-24T02:42:45.823Z,87.85
2022-11-24T02:45:15.502Z,87.75
2022-11-24T02:47:41.893Z,87.88
2022-11-24T02:50:08.537Z,87.31
2022-11-24T02:52:35.234Z,87.80
2022-11-24T02:55:01.594Z,88.13
2022-11-24T02:57:27.965Z,87.78
2022-11-24T02:59:54.528Z,87.91
2022-11-24T03:02:20.984Z,88.09
2022-11-24T03:04:47.463Z,87.96
2022-11-24T03:07:13.804Z,88.07
2022-11-24T03:09:40.403Z,88.31
2022-11-24T03:12:07.115Z,88.25
2022-11-24T03:14:33.664Z,88.59
2022-11-24T03:17:00.319Z,88.52
2022-11-24T03:19:26.833Z,87.99
2022-11-24T03:21:53.256Z,87.86
2022-11-24T03:24:19.557Z,87.79
2022-11-24T03:26:45.895Z,88.09
2022-11-24T03:29:12.286Z,88.48
2022-11-24T03:31:38.687Z,88.22
2022-11-24T03:34:05.117Z,88.17
2022-11-24T03:36:34.194Z,88.39
2022-11-24T03:39:00.862Z,88.65
2022-11-24T03:41:27.188Z,88.71
2022-11-24T03:43:53.552Z,88.66
2022-11-24T03:46:19.933Z,88.42
2022-11-24T03:48:46.304Z,87.60
2022-11-24T03:51:12.803Z,87.88
2022-11-24T03:53:39.117Z,88.19
2022-11-24T03:56:05.613Z,87.95
2022-11-24T03:58:32.229Z,88.18
2022-11-24T04:00:58.708Z,88.09
2022-11-24T04:03:25.373Z,88.38
2022-11-24T04:05:51.753Z,88.46
2022-11-24T04:08:18.479Z,88.26
2022-11-24T04:10:45.159Z,87.82
2022-11-24T04:13:16.418Z,88.11
2022-11-24T04:15:43.635Z,88.23
2022-11-24T04:18:11.731Z,88.26
2022-11-24T04:20:39.314Z,88.41
2022-11-24T04:23:06.159Z,88.56
2022-11-24T04:25:32.555Z,88.36
2022-11-24T04:27:58.990Z,88.52
2022-11-24T04:30:27.371Z,88.60
2022-11-24T04:32:54.246Z,88.58
2022-11-24T04:35:21.126Z,88.51
2022-11-24T04:37:47.704Z,88.08
2022-11-24T04:40:14.823Z,88.31
2022-11-24T04:42:41.201Z,88.89
2022-11-24T04:45:07.953Z,88.92
2022-11-24T04:47:34.455Z,89.43
2022-11-24T04:50:00.754Z,89.62
2022-11-24T04:52:27.227Z,88.63
2022-11-24T04:54:53.590Z,88.95
2022-11-24T04:57:22.083Z,89.18
2022-11-24T04:59:49.781Z,89.34
2022-11-24T05:02:16.313Z,89.47
2022-11-24T05:04:43.103Z,89.88
2022-11-24T05:07:18.419Z,90.10
2022-11-24T05:09:58.917Z,90.07
2022-11-24T05:12:27.703Z,89.50
2022-11-24T05:14:54.064Z,89.11
2022-11-24T05:17:20.475Z,88.93
2022-11-24T05:19:46.744Z,88.99
2022-11-24T05:22:13.081Z,89.09
2022-11-24T05:24:39.695Z,88.74
2022-11-24T05:27:06.404Z,88.80
2022-11-24T05:29:33.005Z,88.50
2022-11-24T05:31:59.349Z,87.54
2022-11-24T05:34:26.304Z,87.33
2022-11-24T05:36:52.669Z,87.91
2022-11-24T05:39:19.872Z,88.23
2022-11-24T05:41:46.583Z,88.56
2022-11-24T05:44:13.130Z,88.58
2022-11-24T05:46:39.625Z,88.70
2022-11-24T05:49:05.953Z,88.82
2022-11-24T05:51:32.285Z,88.57
2022-11-24T05:53:58.697Z,88.50
2022-11-24T05:56:25.085Z,88.15
2022-11-24T05:58:51.431Z,87.43
2022-11-24T06:01:18.045Z,87.62
2022-11-24T06:03:44.516Z,88.06
2022-11-24T06:06:11.016Z,88.21
2022-11-24T06:08:37.364Z,88.26
2022-11-24T06:11:04.059Z,88.17
2022-11-24T06:13:30.415Z,88.39
2022-11-24T06:15:59.444Z,88.51
2022-11-24T06:18:25.864Z,88.72
2022-11-24T06:21:09.915Z,88.63
2022-11-24T06:23:39.054Z,88.39
2022-11-24T06:26:06.405Z,88.33
2022-11-24T06:28:32.989Z,87.93
2022-11-24T06:31:03.933Z,85.50
2022-11-24T06:33:34.723Z,85.76
2022-11-24T06:36:03.398Z,85.59
2022-11-24T06:38:30.274Z,86.16
2022-11-24T06:41:27.022Z,84.98
2022-11-24T06:43:53.732Z,84.51
2022-11-24T06:46:20.669Z,83.73
2022-11-24T06:48:47.346Z,84.43
2022-11-24T06:51:13.889Z,84.50
2022-11-24T06:53:41.435Z,84.55
2022-11-24T06:56:16.389Z,83.32
2022-11-24T06:58:44.463Z,84.15
2022-11-24T07:01:20.186Z,84.81
2022-11-24T07:03:48.294Z,85.02
2022-11-24T07:06:15.834Z,85.41
2022-11-24T07:08:42.195Z,85.27
2022-11-24T07:11:11.457Z,86.19
2022-11-24T07:13:38.728Z,86.27
2022-11-24T07:16:20.534Z,86.02
2022-11-24T07:18:48.533Z,85.74
2022-11-24T07:21:15.502Z,84.88
2022-11-24T07:23:42.255Z,85.33
2022-11-24T07:26:10.047Z,84.77
2022-11-24T07:28:37.090Z,85.02
2022-11-24T07:31:11.391Z,85.22
2022-11-24T07:33:38.120Z,84.72
2022-11-24T07:36:07.137Z,84.68
2022-11-24T07:38:33.686Z,85.25
2022-11-24T07:41:05.427Z,85.58
2022-11-24T07:43:36.962Z,85.57
2022-11-24T07:46:05.086Z,84.75
2022-11-24T07:48:31.649Z,84.41
2022-11-24T07:51:02.324Z,84.22
2022-11-24T07:53:28.654Z,84.09
2022-11-24T07:55:56.961Z,84.39
2022-11-24T07:58:24.737Z,82.63
2022-11-24T08:00:53.277Z,82.63
2022-11-24T08:03:23.192Z,83.20
2022-11-24T08:08:47.215Z,81.04
2022-11-24T08:11:18.263Z,81.95
2022-11-24T08:13:45.061Z,82.08
2022-11-24T08:16:13.698Z,80.24
2022-11-24T08:18:41.077Z,79.92
2022-11-24T08:21:11.936Z,78.00
2022-11-24T08:23:38.925Z,79.32
2022-11-24T08:26:12.009Z,78.25
2022-11-24T08:28:38.456Z,78.61
2022-11-24T08:31:08.429Z,77.77
2022-11-24T08:33:35.685Z,76.50
2022-11-24T08:36:07.741Z,77.80
2022-11-24T08:38:34.591Z,79.33
2022-11-24T08:41:03.895Z,80.06
2022-11-24T08:43:31.214Z,78.93
2022-11-24T08:46:06.619Z,80.69
2022-11-24T08:48:33.509Z,80.83
2022-11-24T08:51:10.054Z,80.86
2022-11-24T08:53:36.516Z,80.43
2022-11-24T08:56:08.626Z,77.66
2022-11-24T08:58:36.229Z,75.34
2022-11-24T09:01:16.686Z,76.15
2022-11-24T09:03:49.932Z,77.86
2022-11-24T09:06:25.617Z,77.69
2022-11-24T09:08:55.305Z,78.27
2022-11-24T09:11:22.397Z,77.41
2022-11-24T09:13:49.139Z,77.85
2022-11-24T09:16:18.588Z,76.49
2022-11-24T09:18:45.801Z,77.06
2022-11-24T09:21:21.223Z,77.67
2022-11-24T09:23:48.717Z,76.63
2022-11-24T09:26:27.330Z,77.38
2022-11-24T09:28:55.409Z,76.40
2022-11-24T09:31:27.628Z,77.25
2022-11-24T09:33:54.861Z,76.79
2022-11-24T09:36:22.233Z,77.07
2022-11-24T09:38:48.584Z,76.91
2022-11-24T09:41:14.928Z,77.22
2022-11-24T09:43:50.173Z,74.83
2022-11-24T09:46:40.337Z,76.07
2022-11-24T09:49:15.319Z,74.90
2022-11-24T09:51:48.283Z,76.17
2022-11-24T09:54:22.915Z,74.60
2022-11-24T09:56:49.869Z,74.73
2022-11-24T09:59:19.947Z,75.42
2022-11-24T10:01:48.386Z,72.21
2022-11-24T10:04:25.394Z,72.82
2022-11-24T10:07:22.900Z,73.09
2022-11-24T10:10:13.751Z,72.75
2022-11-24T10:13:05.122Z,72.42
2022-11-24T10:15:46.483Z,70.48
2022-11-24T10:18:22.497Z,71.75
2022-11-24T10:21:01.154Z,70.93
2022-11-24T10:23:44.063Z,71.64
2022-11-24T10:26:31.354Z,72.89
2022-11-24T10:28:57.739Z,73.10
2022-11-24T10:31:38.189Z,72.04
2022-11-24T10:34:33.580Z,73.85
2022-11-24T10:37:12.223Z,74.36
2022-11-24T10:39:58.559Z,73.99
2022-11-24T10:42:32.249Z,73.58
2022-11-24T10:45:10.954Z,73.92
2022-11-24T10:47:38.254Z,75.12
2022-11-24T10:50:18.876Z,73.26
2022-11-24T10:52:51.178Z,73.60
2022-11-24T10:55:17.724Z,72.69
2022-11-24T10:57:44.196Z,72.49
2022-11-24T11:00:19.807Z,73.49
2022-11-24T11:02:51.664Z,73.12
2022-11-24T11:05:38.485Z,72.97
2022-11-24T11:08:13.829Z,71.02
2022-11-24T11:10:42.327Z,71.74
2022-11-24T11:13:23.313Z,71.80
2022-11-24T11:15:50.174Z,72.17
2022-11-24T11:18:18.539Z,69.89
2022-11-24T11:20:57.005Z,71.68
2022-11-24T11:23:30.192Z,70.32
2022-11-24T11:26:18.927Z,70.94
2022-11-24T11:35:02.985Z,69.04
2022-11-24T11:37:32.737Z,70.24
2022-11-24T11:40:00.372Z,72.11
2022-11-24T11:43:00.905Z,70.68
2022-11-24T11:45:31.611Z,69.20
2022-11-24T11:48:05.613Z,71.30
2022-11-24T11:51:14.870Z,70.95
2022-11-24T11:53:37.168Z,71.86
2022-11-24T11:56:21.016Z,72.43
2022-11-24T11:58:47.285Z,73.17
2022-11-24T12:01:44.372Z,73.87
2022-11-24T12:04:31.995Z,74.87
2022-11-24T12:07:37.687Z,75.30
2022-11-24T12:10:24.256Z,75.88
2022-11-24T12:13:09.267Z,75.83
2022-11-24T12:15:57.700Z,74.39
2022-11-24T12:18:57.765Z,72.73
2022-11-24T12:22:03.352Z,72.45
2022-11-24T12:24:35.699Z,72.64
2022-11-24T12:27:20.942Z,72.32
2022-11-24T12:30:02.542Z,71.05
2022-11-24T12:32:56.005Z,69.72
2022-11-24T12:35:25.576Z,69.59
2022-11-24T12:38:09.185Z,68.74
2022-11-24T12:41:01.963Z,67.31
2022-11-24T12:43:40.416Z,65.04
2022-11-24T12:46:20.437Z,64.05
2022-11-24T12:49:15.447Z,64.06
2022-11-24T12:51:46.592Z,64.29
2022-11-24T12:54:15.781Z,60.99
2022-11-24T12:56:58.834Z,60.66
2022-11-24T12:59:31.171Z,60.13
2022-11-24T13:02:28.835Z,60.23
2022-11-24T13:05:13.044Z,60.98
2022-11-24T13:07:45.216Z,62.67
2022-11-24T13:10:46.547Z,63.65
2022-11-24T13:13:12.295Z,64.03
2022-11-24T13:18:52.962Z,66.80
2022-11-24T13:21:47.747Z,66.54
2022-11-24T13:24:17.651Z,66.56
2022-11-24T13:26:47.646Z,66.22
2022-11-24T13:29:28.944Z,65.23
2022-11-24T13:32:15.847Z,66.75
2022-11-24T13:34:42.112Z,65.67
2022-11-24T13:37:31.962Z,66.33
2022-11-24T13:40:01.885Z,66.82
2022-11-24T13:42:42.268Z,67.54
2022-11-24T13:45:39.328Z,67.39
2022-11-24T13:48:21.854Z,68.37
2022-11-24T13:50:52.036Z,66.83
2022-11-24T13:53:40.686Z,67.98
2022-11-24T13:56:23.766Z,68.04
2022-11-24T13:58:59.918Z,67.89
2022-11-24T14:01:28.862Z,67.41
2022-11-24T14:04:33.125Z,67.48
2022-11-24T14:07:09.031Z,68.22
2022-11-24T14:09:47.544Z,66.82
2022-11-24T14:12:15.903Z,67.34
2022-11-24T14:14:43.416Z,66.87
2022-11-24T14:17:28.798Z,66.96
2022-11-24T14:19:57.013Z,67.88
2022-11-24T14:22:31.405Z,68.78
2022-11-24T14:24:59.788Z,69.13
2022-11-24T14:27:37.659Z,67.78
2022-11-24T14:30:20.065Z,68.77
2022-11-24T14:33:02.477Z,68.60
2022-11-24T14:35:31.966Z,68.85
2022-11-24T14:38:00.996Z,69.45
2022-11-24T14:40:46.484Z,70.09
2022-11-24T14:43:30.942Z,69.23
2022-11-24T14:46:09.388Z,69.95
2022-11-24T14:48:37.898Z,70.16
2022-11-24T14:51:08.674Z,71.21
2022-11-24T14:53:35.599Z,71.71
2022-11-24T14:56:24.150Z,71.63
2022-11-24T14:58:50.638Z,71.95
2022-11-24T15:01:22.195Z,72.65
2022-11-24T15:04:17.878Z,72.86
2022-11-24T15:07:24.288Z,72.82
2022-11-24T15:09:53.822Z,73.16
2022-11-24T15:12:28.253Z,73.38
2022-11-24T15:15:14.916Z,73.36
2022-11-24T15:17:49.302Z,73.59
2022-11-24T15:20:45.682Z,74.12
2022-11-24T15:23:17.974Z,73.11
2022-11-24T15:25:45.075Z,73.01
2022-11-24T15:28:11.631Z,73.65
2022-11-24T15:30:38.609Z,74.14
2022-11-24T15:33:14.115Z,74.75
2022-11-24T15:35:40.332Z,74.80
2022-11-24T15:38:06.852Z,74.67
2022-11-24T15:40:33.418Z,75.08
2022-11-24T15:43:05.037Z,73.40
2022-11-24T15:45:34.309Z,73.64
2022-11-24T15:48:00.695Z,74.26
2022-11-24T15:50:27.017Z,74.32
2022-11-24T15:52:53.705Z,75.40
2022-11-24T15:55:21.964Z,75.33
2022-11-24T15:57:48.700Z,75.39
2022-11-24T16:00:17.046Z,75.63
2022-11-24T16:02:43.453Z,76.04
2022-11-24T16:05:11.531Z,75.67
2022-11-24T16:07:38.301Z,76.45
2022-11-24T16:10:07.316Z,76.77
2022-11-24T16:12:33.631Z,75.79
2022-11-24T16:14:59.927Z,74.89
2022-11-24T16:17:26.788Z,75.54
2022-11-24T16:20:00.213Z,75.31
2022-11-24T16:22:27.258Z,76.09
2022-11-24T16:24:53.589Z,76.85
2022-11-24T16:27:19.880Z,76.56
2022-11-24T16:29:46.386Z,77.22
2022-11-24T16:32:12.754Z,76.03
2022-11-24T16:34:39.594Z,75.69
2022-11-24T16:37:05.922Z,74.67
2022-11-24T16:39:32.299Z,73.58
2022-11-24T16:41:58.631Z,74.03
2022-11-24T16:44:25.008Z,73.79
2022-11-24T16:46:51.380Z,74.78
2022-11-24T16:49:17.873Z,75.76
2022-11-24T16:51:44.296Z,76.17
2022-11-24T16:54:10.602Z,76.59
2022-11-24T16:56:37.173Z,76.73
2022-11-24T16:59:03.633Z,77.29
2022-11-24T17:01:30.160Z,75.62
2022-11-24T17:03:56.540Z,75.38
2022-11-24T17:06:23.108Z,76.44
2022-11-24T17:08:49.503Z,76.08
2022-11-24T17:11:18.606Z,76.64
2022-11-24T17:13:45.948Z,76.91
2022-11-24T17:16:17.741Z,77.41
2022-11-24T17:18:44.815Z,77.64
2022-11-24T17:21:17.274Z,77.24
2022-11-24T17:23:44.363Z,78.22
2022-11-24T17:26:13.418Z,78.06
2022-11-24T17:28:40.264Z,78.62
2022-11-24T17:31:30.656Z,78.64
2022-11-24T17:33:58.203Z,79.17
2022-11-24T17:36:25.554Z,79.34
2022-11-24T17:38:52.645Z,79.54
2022-11-24T17:41:20.233Z,79.63
2022-11-24T17:43:54.882Z,79.67
2022-11-24T17:46:21.643Z,79.99
2022-11-24T17:48:48.026Z,80.09
2022-11-24T17:51:19.633Z,80.21
2022-11-24T17:53:48.250Z,80.43
2022-11-24T17:56:20.013Z,80.26
2022-11-24T17:58:46.680Z,80.52
2022-11-24T18:01:13.937Z,80.50
2022-11-24T18:03:41.286Z,80.72
2022-11-24T18:06:12.920Z,80.97
2022-11-24T18:08:44.667Z,81.30
2022-11-24T18:11:13.727Z,81.63
2022-11-24T18:13:56.691Z,81.89
2022-11-24T18:16:26.593Z,81.98
2022-11-24T18:19:07.967Z,82.35
2022-11-24T18:21:35.137Z,82.75
2022-11-24T18:24:01.762Z,83.19
2022-11-24T18:26:28.099Z,83.64
2022-11-24T18:28:54.514Z,83.46
2022-11-24T18:31:20.895Z,83.34
2022-11-24T18:33:47.431Z,83.55
2022-11-24T18:36:17.375Z,83.73
2022-11-24T18:38:43.779Z,84.12
2022-11-24T18:41:11.802Z,84.08
2022-11-24T18:43:38.191Z,84.27
2022-11-24T18:46:12.023Z,84.43
2022-11-24T18:48:38.711Z,84.52
2022-11-24T18:51:05.331Z,84.88
2022-11-24T18:53:31.707Z,84.69
2022-11-24T18:55:59.034Z,85.15
2022-11-24T18:58:26.498Z,85.15
2022-11-24T19:00:54.480Z,85.67
2022-11-24T19:03:20.922Z,85.38
2022-11-24T19:05:47.334Z,85.58
2022-11-24T19:08:13.766Z,85.54
2022-11-24T19:10:40.334Z,85.75
2022-11-24T19:13:06.888Z,86.04
2022-11-24T19:15:34.773Z,86.18
2022-11-24T19:18:02.142Z,86.13
2022-11-24T19:20:28.836Z,86.33
2022-11-24T19:22:55.297Z,86.30
2022-11-24T19:25:21.725Z,86.37
2022-11-24T19:27:48.125Z,86.66
2022-11-24T19:30:16.534Z,86.48
2022-11-24T19:32:43.088Z,86.49
2022-11-24T19:35:09.608Z,86.83
2022-11-24T19:37:35.996Z,87.07
2022-11-24T19:40:02.906Z,87.15
2022-11-24T19:42:29.273Z,86.54
2022-11-24T19:44:56.726Z,86.76
2022-11-24T19:47:23.319Z,87.03
2022-11-24T19:49:49.613Z,87.37
2022-11-24T19:52:16.316Z,86.96
2022-11-24T19:54:42.729Z,86.94
2022-11-24T19:57:09.041Z,86.55
2022-11-24T19:59:35.460Z,87.12
2022-11-24T20:02:01.881Z,87.11
2022-11-24T20:04:28.584Z,86.81
2022-11-24T20:06:55.117Z,86.71
2022-11-24T20:09:21.457Z,86.75
2022-11-24T20:11:48.136Z,86.70
2022-11-24T20:14:16.290Z,87.01
2022-11-24T20:16:42.710Z,87.01
2022-11-24T20:19:13.625Z,87.07
2022-11-24T20:21:41.244Z,86.91
2022-11-24T20:24:13.513Z,87.06
2022-11-24T20:26:52.443Z,86.98
2022-11-24T20:29:19.291Z,87.29
2022-11-24T20:31:49.277Z,86.94
2022-11-24T20:34:16.263Z,87.00
2022-11-24T20:36:45.078Z,87.38
2022-11-24T20:39:16.805Z,87.41
2022-11-24T20:41:43.946Z,87.32
2022-11-24T20:44:13.614Z,87.29
2022-11-24T20:46:41.486Z,87.15
2022-11-24T20:49:10.796Z,87.67
2022-11-24T20:51:38.963Z,87.65
2022-11-24T20:54:08.228Z,87.65
2022-11-24T20:56:37.935Z,87.65
2022-11-24T20:59:04.561Z,87.03
2022-11-24T21:01:34.493Z,87.58
2022-11-24T21:04:02.479Z,87.21
2022-11-24T21:06:29.269Z,87.47
2022-11-24T21:09:02.029Z,86.99
2022-11-24T21:11:30.355Z,86.66
2022-11-24T21:13:58.445Z,87.24
2022-11-24T21:16:27.664Z,87.08
2022-11-24T21:19:03.391Z,87.05
2022-11-24T21:21:32.113Z,86.91
2022-11-24T21:23:58.872Z,86.73
2022-11-24T21:26:25.589Z,86.59
2022-11-24T21:28:51.973Z,86.64
2022-11-24T21:31:21.031Z,86.68
2022-11-24T21:33:49.795Z,87.17
2022-11-24T21:36:18.975Z,87.06
2022-11-24T21:38:54.064Z,87.09
2022-11-24T21:41:21.275Z,86.59
2022-11-24T21:43:47.949Z,86.44
2022-11-24T21:46:14.703Z,86.71
2022-11-24T21:48:42.036Z,87.04
2022-11-24T21:51:12.799Z,86.79
2022-11-24T21:53:39.512Z,86.86
2022-11-24T21:56:11.650Z,87.00
2022-11-24T21:58:38.772Z,87.21
2022-11-24T22:01:07.999Z,86.26
2022-11-24T22:03:34.878Z,86.71
2022-11-24T22:06:02.019Z,86.33
2022-11-24T22:08:30.102Z,87.00
2022-11-24T22:11:23.488Z,86.91
2022-11-24T22:13:50.813Z,86.99
2022-11-24T22:16:22.799Z,87.17
2022-11-24T22:18:50.333Z,87.46
2022-11-24T22:21:19.527Z,87.44
2022-11-24T22:23:46.225Z,88.00
2022-11-24T22:26:15.899Z,87.69
2022-11-24T22:28:43.868Z,87.25
2022-11-24T22:31:15.544Z,87.64
2022-11-24T22:33:42.015Z,87.10
2022-11-24T22:36:10.053Z,87.72
2022-11-24T22:38:36.991Z,87.08
2022-11-24T22:41:12.168Z,86.90
2022-11-24T22:43:40.332Z,86.80
2022-11-24T22:46:17.788Z,86.76
2022-11-24T22:48:45.596Z,86.96
2022-11-24T22:51:23.681Z,86.55
2022-11-24T22:54:01.339Z,87.04
2022-11-24T22:56:28.377Z,86.82
2022-11-24T22:58:54.812Z,87.34
2022-11-24T23:01:24.881Z,87.11
2022-11-24T23:03:52.634Z,86.82
2022-11-24T23:06:21.799Z,86.86
2022-11-24T23:08:48.974Z,86.50
2022-11-24T23:11:18.815Z,86.72
2022-11-24T23:13:46.017Z,87.10
2022-11-24T23:16:17.839Z,86.80
2022-11-24T23:18:48.765Z,86.75
2022-11-24T23:21:20.064Z,86.57
2022-11-24T23:23:47.705Z,86.24
2022-11-24T23:26:17.124Z,85.94
2022-11-24T23:28:43.954Z,86.24
2022-11-24T23:31:13.394Z,86.71
2022-11-24T23:33:40.417Z,86.64
2022-11-24T23:36:10.402Z,86.52
2022-11-24T23:38:37.379Z,86.40
2022-11-24T23:41:06.838Z,86.21
2022-11-24T23:43:34.507Z,86.12
2022-11-24T23:46:12.986Z,86.12
2022-11-24T23:48:40.689Z,85.99
2022-11-24T23:51:17.005Z,86.21
2022-11-24T23:53:44.124Z,86.17
2022-11-24T23:56:12.477Z,86.05
2022-11-24T23:58:39.210Z,86.19
